Terminal Aerodrome Forecast
Issued by NWS

Home | Current Version | Previous Version | Text Only | Print | Product List | Glossary On
Versions: 1 2 3 4 5 6 7 8 9 10 11 12 13
964
FTUS44 KLIX 250520
TAFMSY
TAF
KMSY 250520Z 2506/2606 08006KT P6SM FEW026
     FM250900 07007KT P6SM VCSH BKN030 BKN100
     FM251400 07008KT P6SM SCT030 BKN080
     FM251900 07005KT P6SM VCTS SCT040CB BKN100=

USA.gov is the U.S. government's official web portal to all federal, state and local government web resources and services.